PRIVATE WETTERSTATION BILLIGHEIM-ALLFELD                       ZURCK
Wetterdaten: Samstag, 04.01.2014
Datum Zeit Temp. A. Temp. A. min Temp. A. max Feuchte A. Luftdruck Regen Wind Richtung Richtung Sonnenschein ET Solar Taupunkt Windchill Windben Empfang
04.01.2014 00:00 7,3 C 7,3 C 7,5 C 85 % 1013,7 hPa 0,0 l/m 6,4 km/h (2 Bft) S 180 0 min 0,025 mm 0 W/m 4,9 C 7,3 C 14,5 km/h (3 Bft) 100 %
04.01.2014 00:10 7,2 C 7,2 C 7,3 C 86 % 1013,7 hPa 0,0 l/m 6,4 km/h (2 Bft) S 180 0 min 0,000 mm 0 W/m 5,0 C 7,2 C 16,1 km/h (3 Bft) 100 %
04.01.2014 00:20 7,1 C 7,1 C 7,2 C 86 % 1013,7 hPa 0,0 l/m 6,4 km/h (2 Bft) S 180 0 min 0,000 mm 0 W/m 4,9 C 7,1 C 11,3 km/h (2 Bft) 100 %
04.01.2014 00:30 6,9 C 6,9 C 7,1 C 87 % 1013,8 hPa 0,0 l/m 6,4 km/h (2 Bft) S 180 0 min 0,000 mm 0 W/m 4,9 C 6,9 C 11,3 km/h (2 Bft) 100 %
04.01.2014 00:40 6,9 C 6,9 C 6,9 C 87 % 1013,9 hPa 0,0 l/m 6,4 km/h (2 Bft) S 180 0 min 0,000 mm 0 W/m 4,9 C 6,9 C 14,5 km/h (3 Bft) 100 %
04.01.2014 00:50 6,8 C 6,8 C 6,9 C 87 % 1013,9 hPa 0,0 l/m 6,4 km/h (2 Bft) S 180 0 min 0,000 mm 0 W/m 4,8 C 6,8 C 11,3 km/h (2 Bft) 100 %
04.01.2014 01:00 6,7 C 6,7 C 6,8 C 88 % 1013,9 hPa 0,0 l/m 4,8 km/h (1 Bft) S 180 0 min 0,025 mm 0 W/m 4,9 C 6,7 C 11,3 km/h (2 Bft) 100 %
04.01.2014 01:10 6,4 C 6,4 C 6,7 C 88 % 1013,9 hPa 0,0 l/m 8,0 km/h (2 Bft) S-SW 202 0 min 0,000 mm 0 W/m 4,6 C 5,1 C 14,5 km/h (3 Bft) 100 %
04.01.2014 01:20 6,4 C 6,4 C 6,4 C 88 % 1014,1 hPa 0,0 l/m 9,7 km/h (2 Bft) S-SW 202 0 min 0,000 mm 0 W/m 4,6 C 3,8 C 16,1 km/h (3 Bft) 99 %
04.01.2014 01:30 6,6 C 6,4 C 6,6 C 88 % 1014,2 hPa 0,0 l/m 9,7 km/h (2 Bft) S-SW 202 0 min 0,000 mm 0 W/m 4,8 C 4,0 C 17,7 km/h (3 Bft) 98 %
04.01.2014 01:40 6,7 C 6,6 C 6,7 C 88 % 1014,3 hPa 0,0 l/m 11,3 km/h (2 Bft) S-SW 202 0 min 0,000 mm 0 W/m 4,9 C 3,1 C 16,1 km/h (3 Bft) 98 %
04.01.2014 01:50 6,6 C 6,6 C 6,7 C 88 % 1014,2 hPa 0,0 l/m 11,3 km/h (2 Bft) S-SW 202 0 min 0,000 mm 0 W/m 4,8 C 3,0 C 17,7 km/h (3 Bft) 98 %
04.01.2014 02:00 6,6 C 6,6 C 6,7 C 87 % 1014,3 hPa 0,0 l/m 11,3 km/h (2 Bft) S-SW 202 0 min 0,025 mm 0 W/m 4,6 C 3,0 C 17,7 km/h (3 Bft) 89 %
04.01.2014 02:10 6,6 C 6,6 C 6,7 C 87 % 1014,3 hPa 0,0 l/m 8,0 km/h (2 Bft) SW 225 0 min 0,000 mm 0 W/m 4,6 C 5,3 C 14,5 km/h (3 Bft) 98 %
04.01.2014 02:20 6,8 C 6,6 C 6,8 C 85 % 1014,5 hPa 0,0 l/m 6,4 km/h (2 Bft) SW 225 0 min 0,000 mm 0 W/m 4,5 C 6,8 C 19,3 km/h (3 Bft) 97 %
04.01.2014 02:30 7,2 C 6,8 C 7,2 C 84 % 1014,6 hPa 0,0 l/m 8,0 km/h (2 Bft) SW 225 0 min 0,000 mm 0 W/m 4,7 C 5,9 C 24,1 km/h (4 Bft) 98 %
04.01.2014 02:40 7,1 C 7,1 C 7,3 C 83 % 1014,6 hPa 0,0 l/m 8,0 km/h (2 Bft) S-SW 202 0 min 0,000 mm 0 W/m 4,4 C 5,8 C 16,1 km/h (3 Bft) 97 %
04.01.2014 02:50 6,4 C 6,4 C 7,1 C 84 % 1014,5 hPa 0,0 l/m 3,2 km/h (1 Bft) S 180 0 min 0,000 mm 0 W/m 3,9 C 6,4 C 8,0 km/h (2 Bft) 99 %
04.01.2014 03:00 6,0 C 6,0 C 6,4 C 87 % 1014,4 hPa 0,0 l/m 4,8 km/h (1 Bft) S 180 0 min 0,025 mm 0 W/m 4,0 C 6,0 C 9,7 km/h (2 Bft) 98 %
04.01.2014 03:10 6,3 C 6,0 C 6,3 C 86 % 1014,5 hPa 0,0 l/m 8,0 km/h (2 Bft) S-SW 202 0 min 0,000 mm 0 W/m 4,1 C 5,0 C 14,5 km/h (3 Bft) 98 %
04.01.2014 03:20 6,3 C 6,3 C 6,3 C 86 % 1014,5 hPa 0,0 l/m 3,2 km/h (1 Bft) S 180 0 min 0,000 mm 0 W/m 4,1 C 6,3 C 8,0 km/h (2 Bft) 98 %
04.01.2014 03:30 6,1 C 6,1 C 6,3 C 86 % 1014,4 hPa 0,0 l/m 3,2 km/h (1 Bft) S 180 0 min 0,000 mm 0 W/m 3,9 C 6,1 C 8,0 km/h (2 Bft) 98 %
04.01.2014 03:40 6,1 C 6,0 C 6,1 C 87 % 1014,3 hPa 0,0 l/m 4,8 km/h (1 Bft) S-SO 157 0 min 0,000 mm 0 W/m 4,1 C 6,1 C 9,7 km/h (2 Bft) 98 %
04.01.2014 03:50 6,2 C 6,1 C 6,2 C 86 % 1014,4 hPa 0,0 l/m 4,8 km/h (1 Bft) SO 135 0 min 0,000 mm 0 W/m 4,0 C 6,2 C 9,7 km/h (2 Bft) 97 %
04.01.2014 04:00 6,3 C 6,3 C 6,3 C 85 % 1014,1 hPa 0,0 l/m 1,6 km/h (1 Bft) S-SO 157 0 min 0,000 mm 0 W/m 4,0 C 6,3 C 9,7 km/h (2 Bft) 98 %
04.01.2014 04:10 6,1 C 6,1 C 6,3 C 87 % 1014,2 hPa 0,0 l/m 3,2 km/h (1 Bft) SO 135 0 min 0,000 mm 0 W/m 4,1 C 6,1 C 11,3 km/h (2 Bft) 98 %
04.01.2014 04:20 6,3 C 6,1 C 6,3 C 86 % 1014,1 hPa 0,0 l/m 4,8 km/h (1 Bft) SO 135 0 min 0,000 mm 0 W/m 4,1 C 6,3 C 11,3 km/h (2 Bft) 98 %
04.01.2014 04:30 6,1 C 6,1 C 6,3 C 84 % 1013,7 hPa 0,0 l/m 0,0 km/h (0 Bft) SO 135 0 min 0,000 mm 0 W/m 3,6 C 6,1 C 6,4 km/h (2 Bft) 97 %
04.01.2014 04:40 5,8 C 5,8 C 6,1 C 86 % 1013,8 hPa 0,0 l/m 1,6 km/h (1 Bft) O-SO 112 0 min 0,000 mm 0 W/m 3,6 C 5,8 C 6,4 km/h (2 Bft) 97 %
04.01.2014 04:50 5,4 C 5,4 C 5,8 C 86 % 1013,4 hPa 0,0 l/m 0,0 km/h (0 Bft) SO 135 0 min 0,000 mm 0 W/m 3,3 C 5,4 C 1,6 km/h (1 Bft) 98 %
04.01.2014 05:00 5,2 C 5,2 C 5,5 C 87 % 1013,3 hPa 0,0 l/m 0,0 km/h (0 Bft) N 0 0 min 0,000 mm 0 W/m 3,2 C 5,2 C 0,0 km/h (0 Bft) 97 %
04.01.2014 05:10 5,0 C 5,0 C 5,2 C 87 % 1013,0 hPa 0,0 l/m 0,0 km/h (0 Bft) SO 135 0 min 0,000 mm 0 W/m 3,0 C 5,0 C 1,6 km/h (1 Bft) 98 %
04.01.2014 05:20 4,7 C 4,7 C 5,0 C 88 % 1012,9 hPa 0,0 l/m 0,0 km/h (0 Bft) SO 135 0 min 0,000 mm 0 W/m 2,9 C 4,7 C 4,8 km/h (1 Bft) 98 %
04.01.2014 05:30 4,2 C 4,2 C 4,7 C 88 % 1013,0 hPa 0,0 l/m 1,6 km/h (1 Bft) S 180 0 min 0,000 mm 0 W/m 2,4 C 4,2 C 6,4 km/h (2 Bft) 98 %
04.01.2014 05:40 3,9 C 3,9 C 4,2 C 88 % 1012,8 hPa 0,0 l/m 0,0 km/h (0 Bft) S 180 0 min 0,000 mm 0 W/m 2,1 C 3,9 C 3,2 km/h (1 Bft) 98 %
04.01.2014 05:50 4,4 C 3,9 C 4,4 C 88 % 1012,6 hPa 0,0 l/m 1,6 km/h (1 Bft) SO 135 0 min 0,000 mm 0 W/m 2,6 C 4,4 C 9,7 km/h (2 Bft) 97 %
04.01.2014 06:00 4,5 C 4,4 C 4,5 C 88 % 1012,6 hPa 0,0 l/m 1,6 km/h (1 Bft) S-SO 157 0 min 0,000 mm 0 W/m 2,7 C 4,5 C 8,0 km/h (2 Bft) 98 %
04.01.2014 06:10 4,4 C 4,4 C 4,6 C 88 % 1012,5 hPa 0,0 l/m 0,0 km/h (0 Bft) S 180 0 min 0,000 mm 0 W/m 2,6 C 4,4 C 4,8 km/h (1 Bft) 97 %
04.01.2014 06:20 4,3 C 4,3 C 4,4 C 88 % 1012,3 hPa 0,0 l/m 0,0 km/h (0 Bft) SO 135 0 min 0,000 mm 0 W/m 2,5 C 4,3 C 4,8 km/h (1 Bft) 89 %
04.01.2014 06:30 4,3 C 4,2 C 4,3 C 88 % 1012,2 hPa 0,0 l/m 0,0 km/h (0 Bft) N 0 0 min 0,000 mm 0 W/m 2,5 C 4,3 C 0,0 km/h (0 Bft) 98 %
04.01.2014 06:40 4,2 C 4,2 C 4,3 C 88 % 1012,2 hPa 0,0 l/m 0,0 km/h (0 Bft) SO 135 0 min 0,000 mm 0 W/m 2,4 C 4,2 C 3,2 km/h (1 Bft) 98 %
04.01.2014 06:50 4,2 C 4,1 C 4,2 C 88 % 1012,1 hPa 0,0 l/m 0,0 km/h (0 Bft) SO 135 0 min 0,000 mm 0 W/m 2,4 C 4,2 C 3,2 km/h (1 Bft) 98 %
04.01.2014 07:00 4,1 C 4,1 C 4,2 C 88 % 1011,9 hPa 0,0 l/m 0,0 km/h (0 Bft) SO 135 0 min 0,000 mm 0 W/m 2,3 C 4,1 C 1,6 km/h (1 Bft) 97 %
04.01.2014 07:10 4,1 C 4,1 C 4,2 C 88 % 1011,5 hPa 0,0 l/m 1,6 km/h (1 Bft) S-SO 157 0 min 0,000 mm 0 W/m 2,3 C 4,1 C 4,8 km/h (1 Bft) 98 %
04.01.2014 07:20 4,1 C 4,1 C 4,1 C 88 % 1011,6 hPa 0,0 l/m 0,0 km/h (0 Bft) SO 135 0 min 0,000 mm 0 W/m 2,3 C 4,1 C 6,4 km/h (2 Bft) 97 %
04.01.2014 07:30 4,1 C 4,0 C 4,1 C 88 % 1011,5 hPa 0,0 l/m 0,0 km/h (0 Bft) SO 135 0 min 0,000 mm 0 W/m 2,3 C 4,1 C 4,8 km/h (1 Bft) 97 %
04.01.2014 07:40 4,1 C 4,0 C 4,1 C 88 % 1011,3 hPa 0,0 l/m 0,0 km/h (0 Bft) S-SO 157 0 min 0,000 mm 0 W/m 2,3 C 4,1 C 3,2 km/h (1 Bft) 97 %
04.01.2014 07:50 4,2 C 4,1 C 4,2 C 88 % 1011,4 hPa 0,0 l/m 0,0 km/h (0 Bft) O-NO 67 0 min 0,000 mm 0 W/m 2,4 C 4,2 C 4,8 km/h (1 Bft) 98 %
04.01.2014 08:00 4,1 C 4,1 C 4,2 C 88 % 1011,3 hPa 0,0 l/m 0,0 km/h (0 Bft) O-NO 67 0 min 0,000 mm 0 W/m 2,3 C 4,1 C 1,6 km/h (1 Bft) 98 %
04.01.2014 08:10 4,2 C 4,1 C 4,2 C 88 % 1011,0 hPa 0,0 l/m 0,0 km/h (0 Bft) S-SO 157 0 min 0,000 mm 0 W/m 2,4 C 4,2 C 4,8 km/h (1 Bft) 97 %
04.01.2014 08:20 4,2 C 4,1 C 4,2 C 88 % 1010,9 hPa 0,0 l/m 0,0 km/h (0 Bft) O 90 0 min 0,000 mm 0 W/m 2,4 C 4,2 C 3,2 km/h (1 Bft) 87 %
04.01.2014 08:30 3,9 C 3,9 C 4,2 C 89 % 1011,0 hPa 0,0 l/m 0,0 km/h (0 Bft) N 360 0 min 0,000 mm 5 W/m 2,3 C 3,9 C 3,2 km/h (1 Bft) 97 %
04.01.2014 08:40 3,7 C 3,7 C 3,9 C 89 % 1010,6 hPa 0,0 l/m 0,0 km/h (0 Bft) N 360 0 min 0,000 mm 7 W/m 2,1 C 3,7 C 4,8 km/h (1 Bft) 98 %
04.01.2014 08:50 3,6 C 3,6 C 3,7 C 89 % 1010,6 hPa 0,0 l/m 0,0 km/h (0 Bft) N-NW 337 0 min 0,000 mm 9 W/m 2,0 C 3,6 C 4,8 km/h (1 Bft) 97 %
04.01.2014 09:00 3,6 C 3,6 C 3,6 C 89 % 1010,5 hPa 0,0 l/m 1,6 km/h (1 Bft) NW 315 0 min 0,000 mm 12 W/m 2,0 C 3,6 C 4,8 km/h (1 Bft) 98 %
04.01.2014 09:10 3,6 C 3,6 C 3,6 C 89 % 1010,4 hPa 0,0 l/m 0,0 km/h (0 Bft) NW 315 0 min 0,000 mm 16 W/m 2,0 C 3,6 C 4,8 km/h (1 Bft) 98 %
04.01.2014 09:20 3,7 C 3,6 C 3,7 C 88 % 1010,1 hPa 0,0 l/m 0,0 km/h (0 Bft) N 360 0 min 0,000 mm 19 W/m 1,9 C 3,7 C 4,8 km/h (1 Bft) 97 %
04.01.2014 09:30 4,3 C 3,7 C 4,3 C 88 % 1010,0 hPa 0,0 l/m 0,0 km/h (0 Bft) SO 135 0 min 0,000 mm 23 W/m 2,5 C 4,3 C 6,4 km/h (2 Bft) 98 %
04.01.2014 09:40 4,8 C 4,3 C 4,8 C 88 % 1009,9 hPa 0,0 l/m 0,0 km/h (0 Bft) SO 135 0 min 0,000 mm 28 W/m 3,0 C 4,8 C 8,0 km/h (2 Bft) 96 %
04.01.2014 09:50 5,1 C 4,8 C 5,1 C 89 % 1009,5 hPa 0,0 l/m 1,6 km/h (1 Bft) O 90 0 min 0,000 mm 33 W/m 3,4 C 5,1 C 6,4 km/h (2 Bft) 100 %
04.01.2014 10:00 5,4 C 5,1 C 5,4 C 88 % 1009,5 hPa 0,0 l/m 1,6 km/h (1 Bft) SO 135 0 min 0,000 mm 39 W/m 3,6 C 5,4 C 9,7 km/h (2 Bft) 100 %
04.01.2014 10:10 5,4 C 5,4 C 5,4 C 88 % 1009,2 hPa 0,0 l/m 1,6 km/h (1 Bft) O 90 0 min 0,000 mm 46 W/m 3,6 C 5,4 C 6,4 km/h (2 Bft) 100 %
04.01.2014 10:20 5,6 C 5,4 C 5,6 C 88 % 1009,0 hPa 0,0 l/m 0,0 km/h (0 Bft) O-SO 112 0 min 0,000 mm 51 W/m 3,8 C 5,6 C 4,8 km/h (1 Bft) 100 %
04.01.2014 10:30 5,7 C 5,6 C 5,7 C 88 % 1008,9 hPa 0,0 l/m 0,0 km/h (0 Bft) SO 135 0 min 0,000 mm 51 W/m 3,9 C 5,7 C 6,4 km/h (2 Bft) 99 %
04.01.2014 10:40 6,0 C 5,7 C 6,0 C 87 % 1008,6 hPa 0,0 l/m 1,6 km/h (1 Bft) O-SO 112 0 min 0,000 mm 46 W/m 4,0 C 6,0 C 6,4 km/h (2 Bft) 100 %
04.01.2014 10:50 6,3 C 6,0 C 6,3 C 86 % 1008,3 hPa 0,0 l/m 1,6 km/h (1 Bft) O-SO 112 0 min 0,000 mm 46 W/m 4,1 C 6,3 C 6,4 km/h (2 Bft) 99 %
04.01.2014 11:00 6,7 C 6,3 C 6,7 C 85 % 1008,0 hPa 0,0 l/m 1,6 km/h (1 Bft) O-SO 112 0 min 0,025 mm 58 W/m 4,4 C 6,7 C 9,7 km/h (2 Bft) 100 %
04.01.2014 11:10 6,9 C 6,7 C 6,9 C 84 % 1007,8 hPa 0,0 l/m 1,6 km/h (1 Bft) O-SO 112 0 min 0,000 mm 95 W/m 4,4 C 6,9 C 9,7 km/h (2 Bft) 99 %
04.01.2014 11:20 7,2 C 6,9 C 7,2 C 83 % 1007,4 hPa 0,0 l/m 1,6 km/h (1 Bft) O-SO 112 0 min 0,000 mm 113 W/m 4,5 C 7,2 C 11,3 km/h (2 Bft) 100 %
04.01.2014 11:30 7,4 C 7,2 C 7,4 C 82 % 1007,2 hPa 0,0 l/m 1,6 km/h (1 Bft) O-SO 112 0 min 0,000 mm 114 W/m 4,5 C 7,4 C 9,7 km/h (2 Bft) 100 %
04.01.2014 11:40 7,6 C 7,4 C 7,6 C 82 % 1007,0 hPa 0,0 l/m 1,6 km/h (1 Bft) SO 135 0 min 0,000 mm 120 W/m 4,7 C 7,6 C 9,7 km/h (2 Bft) 100 %
04.01.2014 11:50 7,7 C 7,4 C 7,7 C 84 % 1006,8 hPa 0,0 l/m 0,0 km/h (0 Bft) NO 50 10 min 0,000 mm 158 W/m 5,2 C 7,7 C 1,6 km/h (1 Bft) 98 %
04.01.2014 12:00 7,8 C 7,7 C 7,8 C 84 % 1006,4 hPa 0,0 l/m 0,1 km/h (0 Bft) NO 50 0 min 0,027 mm 113 W/m 5,3 C 7,8 C 3,2 km/h (1 Bft) 97 %
04.01.2014 12:10 7,8 C 7,8 C 7,8 C 85 % 1006,1 hPa 0,0 l/m 0,2 km/h (0 Bft) NO 50 0 min 0,000 mm 120 W/m 5,4 C 7,8 C 1,6 km/h (1 Bft) 97 %
04.01.2014 12:20 7,8 C 7,8 C 7,8 C 85 % 1005,7 hPa 0,0 l/m 0,2 km/h (0 Bft) NO 50 0 min 0,000 mm 100 W/m 5,4 C 7,8 C 3,2 km/h (1 Bft) 97 %
04.01.2014 12:30 7,9 C 7,8 C 7,9 C 84 % 1005,5 hPa 0,0 l/m 0,2 km/h (0 Bft) NO 50 0 min 0,000 mm 113 W/m 5,4 C 7,9 C 1,6 km/h (1 Bft) 97 %
04.01.2014 12:40 7,9 C 7,8 C 7,9 C 84 % 1005,2 hPa 0,0 l/m 0,5 km/h (0 Bft) N-NO 31 0 min 0,000 mm 142 W/m 5,4 C 7,9 C 4,8 km/h (1 Bft) 97 %
04.01.2014 12:50 8,1 C 7,9 C 8,1 C 83 % 1005,0 hPa 0,0 l/m 1,3 km/h (1 Bft) NO 40 0 min 0,000 mm 97 W/m 5,4 C 8,1 C 4,8 km/h (1 Bft) 97 %
04.01.2014 13:00 8,2 C 8,1 C 8,2 C 81 % 1004,9 hPa 0,0 l/m 3,7 km/h (1 Bft) O-NO 77 0 min 0,051 mm 72 W/m 5,1 C 8,2 C 16,1 km/h (3 Bft) 97 %
04.01.2014 13:10 8,4 C 8,2 C 8,4 C 79 % 1004,5 hPa 0,0 l/m 3,1 km/h (1 Bft) O-SO 114 0 min 0,000 mm 83 W/m 5,0 C 8,4 C 14,5 km/h (3 Bft) 97 %
04.01.2014 13:20 8,6 C 8,4 C 8,6 C 79 % 1004,1 hPa 0,0 l/m 1,4 km/h (1 Bft) O-NO 64 0 min 0,000 mm 83 W/m 5,2 C 8,6 C 6,4 km/h (2 Bft) 98 %
04.01.2014 13:30 8,7 C 8,6 C 8,7 C 79 % 1003,9 hPa 0,0 l/m 1,5 km/h (1 Bft) NO 55 0 min 0,000 mm 74 W/m 5,3 C 8,7 C 9,7 km/h (2 Bft) 97 %
04.01.2014 13:40 8,7 C 8,7 C 8,7 C 78 % 1003,5 hPa 0,0 l/m 1,1 km/h (1 Bft) O-NO 58 0 min 0,000 mm 76 W/m 5,1 C 8,7 C 8,0 km/h (2 Bft) 98 %
04.01.2014 13:50 8,8 C 8,7 C 8,8 C 79 % 1003,2 hPa 0,0 l/m 2,1 km/h (1 Bft) NO 49 0 min 0,000 mm 81 W/m 5,4 C 8,8 C 9,7 km/h (2 Bft) 97 %
04.01.2014 14:00 8,7 C 8,7 C 8,8 C 78 % 1003,0 hPa 0,0 l/m 1,3 km/h (1 Bft) O 88 0 min 0,000 mm 69 W/m 5,1 C 8,7 C 8,0 km/h (2 Bft) 97 %
04.01.2014 14:10 8,7 C 8,7 C 8,8 C 78 % 1002,5 hPa 0,0 l/m 1,1 km/h (1 Bft) NO 56 0 min 0,051 mm 62 W/m 5,1 C 8,7 C 6,4 km/h (2 Bft) 98 %
04.01.2014 14:20 8,7 C 8,7 C 8,8 C 77 % 1002,4 hPa 0,0 l/m 2,2 km/h (1 Bft) O-NO 77 0 min 0,000 mm 54 W/m 4,9 C 8,7 C 11,3 km/h (2 Bft) 97 %
04.01.2014 14:30 8,8 C 8,7 C 8,8 C 76 % 1002,2 hPa 0,0 l/m 1,1 km/h (1 Bft) O 92 0 min 0,000 mm 62 W/m 4,8 C 8,8 C 11,3 km/h (2 Bft) 96 %
04.01.2014 14:40 8,7 C 8,7 C 8,8 C 75 % 1002,0 hPa 0,0 l/m 3,5 km/h (1 Bft) O-SO 120 0 min 0,000 mm 49 W/m 4,5 C 8,7 C 14,5 km/h (3 Bft) 97 %
04.01.2014 14:50 8,7 C 8,7 C 8,8 C 75 % 1002,1 hPa 0,0 l/m 2,3 km/h (1 Bft) O-NO 61 0 min 0,000 mm 35 W/m 4,5 C 8,7 C 9,7 km/h (2 Bft) 97 %
04.01.2014 15:00 8,7 C 8,6 C 8,7 C 74 % 1002,3 hPa 0,0 l/m 2,0 km/h (1 Bft) O-SO 116 0 min 0,025 mm 26 W/m 4,3 C 8,7 C 14,5 km/h (3 Bft) 98 %
04.01.2014 15:10 8,6 C 8,6 C 8,7 C 74 % 1002,0 hPa 0,0 l/m 1,9 km/h (1 Bft) O 98 0 min 0,000 mm 25 W/m 4,2 C 8,6 C 6,4 km/h (2 Bft) 97 %
04.01.2014 15:20 8,5 C 8,5 C 8,6 C 74 % 1001,8 hPa 0,0 l/m 0,7 km/h (0 Bft) O-SO 113 0 min 0,000 mm 18 W/m 4,1 C 8,5 C 4,8 km/h (1 Bft) 98 %
04.01.2014 15:30 8,4 C 8,4 C 8,5 C 75 % 1001,7 hPa 0,0 l/m 0,3 km/h (0 Bft) O-SO 109 0 min 0,000 mm 16 W/m 4,2 C 8,4 C 4,8 km/h (1 Bft) 89 %
04.01.2014 15:40 8,3 C 8,3 C 8,4 C 75 % 1001,7 hPa 0,0 l/m 1,0 km/h (0 Bft) O-SO 112 0 min 0,000 mm 12 W/m 4,1 C 8,3 C 6,4 km/h (2 Bft) 98 %
04.01.2014 15:50 8,1 C 8,1 C 8,3 C 77 % 1001,4 hPa 0,0 l/m 0,4 km/h (0 Bft) S-SO 157 0 min 0,000 mm 9 W/m 4,3 C 8,1 C 4,8 km/h (1 Bft) 98 %
04.01.2014 16:00 7,9 C 7,9 C 8,1 C 79 % 1001,5 hPa 0,0 l/m 0,7 km/h (0 Bft) SO 145 0 min 0,000 mm 7 W/m 4,5 C 7,9 C 4,8 km/h (1 Bft) 97 %
04.01.2014 16:10 7,6 C 7,6 C 7,9 C 81 % 1001,3 hPa 0,0 l/m 0,0 km/h (0 Bft) S-SO 150 0 min 0,000 mm 7 W/m 4,6 C 7,6 C 1,6 km/h (1 Bft) 97 %
04.01.2014 16:20 7,3 C 7,3 C 7,6 C 82 % 1001,2 hPa 0,0 l/m 0,6 km/h (0 Bft) S-SO 153 0 min 0,000 mm 0 W/m 4,4 C 7,3 C 6,4 km/h (2 Bft) 97 %
04.01.2014 16:30 7,1 C 7,1 C 7,3 C 83 % 1001,2 hPa 0,0 l/m 2,1 km/h (1 Bft) S 170 0 min 0,000 mm 0 W/m 4,4 C 7,1 C 8,0 km/h (2 Bft) 97 %
04.01.2014 16:40 7,0 C 7,0 C 7,1 C 85 % 1001,1 hPa 0,0 l/m 3,1 km/h (1 Bft) S-SO 157 0 min 0,000 mm 0 W/m 4,7 C 7,0 C 6,4 km/h (2 Bft) 97 %
04.01.2014 16:50 6,9 C 6,9 C 7,0 C 86 % 1001,0 hPa 0,0 l/m 2,7 km/h (1 Bft) S 179 0 min 0,000 mm 0 W/m 4,7 C 6,9 C 11,3 km/h (2 Bft) 97 %
04.01.2014 17:00 6,8 C 6,8 C 6,9 C 86 % 1001,0 hPa 0,0 l/m 4,3 km/h (1 Bft) S 175 0 min 0,000 mm 0 W/m 4,6 C 6,8 C 11,3 km/h (2 Bft) 98 %
04.01.2014 17:10 6,6 C 6,6 C 6,8 C 87 % 1001,1 hPa 0,0 l/m 3,9 km/h (1 Bft) S 173 0 min 0,000 mm 0 W/m 4,6 C 6,6 C 9,7 km/h (2 Bft) 97 %
04.01.2014 17:20 6,5 C 6,5 C 6,7 C 88 % 1001,0 hPa 0,0 l/m 1,8 km/h (1 Bft) S-SO 168 0 min 0,000 mm 0 W/m 4,7 C 6,5 C 6,4 km/h (2 Bft) 98 %
04.01.2014 17:30 6,3 C 6,3 C 6,5 C 88 % 1001,1 hPa 0,0 l/m 1,0 km/h (0 Bft) S-SO 157 0 min 0,000 mm 0 W/m 4,5 C 6,3 C 4,8 km/h (1 Bft) 97 %
04.01.2014 17:40 6,2 C 6,2 C 6,3 C 88 % 1001,1 hPa 0,0 l/m 1,7 km/h (1 Bft) S-SO 162 0 min 0,000 mm 0 W/m 4,4 C 6,2 C 6,4 km/h (2 Bft) 98 %
04.01.2014 17:50 6,1 C 6,1 C 6,2 C 88 % 1001,0 hPa 0,0 l/m 1,9 km/h (1 Bft) S-SO 168 0 min 0,000 mm 0 W/m 4,3 C 6,1 C 6,4 km/h (2 Bft) 97 %
04.01.2014 18:00 5,9 C 5,9 C 6,1 C 88 % 1000,8 hPa 0,2 l/m 2,2 km/h (1 Bft) SO 140 0 min 0,000 mm 0 W/m 4,1 C 5,9 C 9,7 km/h (2 Bft) 97 %
04.01.2014 18:10 5,9 C 5,8 C 5,9 C 88 % 1000,6 hPa 0,0 l/m 3,2 km/h (1 Bft) S-SO 152 0 min 0,000 mm 0 W/m 4,1 C 5,9 C 8,0 km/h (2 Bft) 97 %
04.01.2014 18:20 5,8 C 5,8 C 5,9 C 88 % 1000,7 hPa 0,2 l/m 4,5 km/h (1 Bft) S 173 0 min 0,000 mm 0 W/m 4,0 C 5,8 C 11,3 km/h (2 Bft) 97 %
04.01.2014 18:30 5,7 C 5,7 C 5,8 C 88 % 1000,5 hPa 0,0 l/m 3,3 km/h (1 Bft) S-SO 162 0 min 0,000 mm 0 W/m 3,9 C 5,7 C 9,7 km/h (2 Bft) 98 %
04.01.2014 18:40 5,7 C 5,7 C 5,8 C 88 % 1000,6 hPa 0,0 l/m 1,7 km/h (1 Bft) S-SO 161 0 min 0,000 mm 0 W/m 3,9 C 5,7 C 8,0 km/h (2 Bft) 97 %
04.01.2014 18:50 5,7 C 5,7 C 5,7 C 88 % 1000,3 hPa 0,0 l/m 0,5 km/h (0 Bft) S-SO 160 0 min 0,000 mm 0 W/m 3,9 C 5,7 C 6,4 km/h (2 Bft) 98 %
04.01.2014 19:00 5,8 C 5,7 C 5,8 C 88 % 1000,3 hPa 0,0 l/m 4,3 km/h (1 Bft) S 178 0 min 0,000 mm 0 W/m 4,0 C 5,8 C 8,0 km/h (2 Bft) 97 %
04.01.2014 19:10 5,8 C 5,7 C 5,8 C 88 % 1000,1 hPa 0,0 l/m 3,9 km/h (1 Bft) S 180 0 min 0,000 mm 0 W/m 4,0 C 5,8 C 9,7 km/h (2 Bft) 97 %
04.01.2014 19:20 5,8 C 5,8 C 5,8 C 88 % 999,9 hPa 0,0 l/m 3,7 km/h (1 Bft) S-SO 147 0 min 0,000 mm 0 W/m 4,0 C 5,8 C 8,0 km/h (2 Bft) 97 %
04.01.2014 19:30 5,9 C 5,8 C 5,9 C 88 % 999,5 hPa 0,0 l/m 3,0 km/h (1 Bft) S-SO 153 0 min 0,000 mm 0 W/m 4,1 C 5,9 C 9,7 km/h (2 Bft) 97 %
04.01.2014 19:40 5,9 C 5,9 C 5,9 C 88 % 999,9 hPa 0,0 l/m 3,7 km/h (1 Bft) S 175 0 min 0,000 mm 0 W/m 4,1 C 5,9 C 11,3 km/h (2 Bft) 98 %
04.01.2014 19:50 5,9 C 5,9 C 5,9 C 88 % 1000,1 hPa 0,0 l/m 4,5 km/h (1 Bft) S 186 0 min 0,000 mm 0 W/m 4,1 C 5,9 C 12,9 km/h (3 Bft) 97 %
04.01.2014 20:00 5,9 C 5,9 C 5,9 C 88 % 1000,1 hPa 0,0 l/m 2,6 km/h (1 Bft) S-SO 167 0 min 0,000 mm 0 W/m 4,1 C 5,9 C 9,7 km/h (2 Bft) 98 %
04.01.2014 20:10 6,0 C 5,9 C 6,0 C 88 % 1000,1 hPa 0,0 l/m 3,2 km/h (1 Bft) S-SO 150 0 min 0,000 mm 0 W/m 4,2 C 6,0 C 9,7 km/h (2 Bft) 97 %
04.01.2014 20:20 5,9 C 5,9 C 6,0 C 88 % 1000,3 hPa 0,0 l/m 3,2 km/h (1 Bft) S-SO 155 0 min 0,000 mm 0 W/m 4,1 C 5,9 C 8,0 km/h (2 Bft) 97 %
04.01.2014 20:30 5,9 C 5,9 C 5,9 C 88 % 1000,4 hPa 0,0 l/m 2,3 km/h (1 Bft) S-SO 150 0 min 0,000 mm 0 W/m 4,1 C 5,9 C 6,4 km/h (2 Bft) 98 %
04.01.2014 20:40 5,8 C 5,8 C 5,9 C 88 % 1000,5 hPa 0,0 l/m 4,8 km/h (1 Bft) S-SO 158 0 min 0,000 mm 0 W/m 4,0 C 5,8 C 9,7 km/h (2 Bft) 97 %
04.01.2014 20:50 5,9 C 5,8 C 5,9 C 88 % 1000,4 hPa 0,0 l/m 6,4 km/h (2 Bft) S-SO 159 0 min 0,000 mm 0 W/m 4,1 C 5,9 C 14,5 km/h (3 Bft) 98 %
04.01.2014 21:00 6,0 C 5,9 C 6,0 C 88 % 1000,4 hPa 0,0 l/m 7,0 km/h (2 Bft) S 181 0 min 0,000 mm 0 W/m 4,2 C 5,5 C 16,1 km/h (3 Bft) 97 %
04.01.2014 21:10 6,1 C 6,0 C 6,1 C 88 % 1000,3 hPa 0,0 l/m 6,4 km/h (2 Bft) S-SO 157 0 min 0,000 mm 0 W/m 4,3 C 6,1 C 14,5 km/h (3 Bft) 100 %
04.01.2014 21:20 5,9 C 5,9 C 6,1 C 88 % 1000,2 hPa 0,0 l/m 4,8 km/h (1 Bft) S-SO 157 0 min 0,000 mm 0 W/m 4,1 C 5,9 C 12,9 km/h (3 Bft) 100 %
04.01.2014 21:30 5,9 C 5,9 C 5,9 C 88 % 1000,0 hPa 0,0 l/m 3,2 km/h (1 Bft) S-SO 157 0 min 0,000 mm 0 W/m 4,1 C 5,9 C 9,7 km/h (2 Bft) 100 %
04.01.2014 21:40 6,0 C 5,9 C 6,0 C 88 % 999,8 hPa 0,0 l/m 4,8 km/h (1 Bft) S-SO 157 0 min 0,000 mm 0 W/m 4,2 C 6,0 C 9,7 km/h (2 Bft) 100 %
04.01.2014 21:50 6,0 C 6,0 C 6,1 C 88 % 999,8 hPa 0,0 l/m 3,2 km/h (1 Bft) S-SO 157 0 min 0,000 mm 0 W/m 4,2 C 6,0 C 11,3 km/h (2 Bft) 100 %
04.01.2014 22:00 5,8 C 5,8 C 6,0 C 88 % 999,7 hPa 0,0 l/m 3,2 km/h (1 Bft) S-SO 157 0 min 0,000 mm 0 W/m 4,0 C 5,8 C 9,7 km/h (2 Bft) 100 %
04.01.2014 22:10 5,8 C 5,8 C 5,9 C 88 % 999,5 hPa 0,0 l/m 1,6 km/h (1 Bft) S-SO 157 0 min 0,000 mm 0 W/m 4,0 C 5,8 C 6,4 km/h (2 Bft) 100 %
04.01.2014 22:20 5,8 C 5,8 C 5,8 C 88 % 999,5 hPa 0,0 l/m 1,6 km/h (1 Bft) SO 135 0 min 0,000 mm 0 W/m 4,0 C 5,8 C 9,7 km/h (2 Bft) 100 %
04.01.2014 22:30 5,5 C 5,5 C 5,8 C 89 % 999,6 hPa 0,0 l/m 1,6 km/h (1 Bft) S 180 0 min 0,000 mm 0 W/m 3,8 C 5,5 C 4,8 km/h (1 Bft) 100 %
04.01.2014 22:40 5,4 C 5,3 C 5,5 C 88 % 999,6 hPa 0,0 l/m 3,2 km/h (1 Bft) S-SO 157 0 min 0,000 mm 0 W/m 3,6 C 5,4 C 9,7 km/h (2 Bft) 100 %
04.01.2014 22:50 5,5 C 5,4 C 5,5 C 88 % 999,6 hPa 0,0 l/m 3,2 km/h (1 Bft) S-SO 157 0 min 0,000 mm 0 W/m 3,7 C 5,5 C 9,7 km/h (2 Bft) 100 %
04.01.2014 23:00 5,6 C 5,5 C 5,6 C 89 % 999,6 hPa 0,0 l/m 6,4 km/h (2 Bft) S-SO 157 0 min 0,000 mm 0 W/m 3,9 C 5,6 C 16,1 km/h (3 Bft) 100 %
04.01.2014 23:10 5,5 C 5,5 C 5,6 C 89 % 999,4 hPa 0,0 l/m 1,6 km/h (1 Bft) S 180 0 min 0,000 mm 0 W/m 3,8 C 5,5 C 9,7 km/h (2 Bft) 100 %
04.01.2014 23:20 5,2 C 5,2 C 5,5 C 89 % 999,2 hPa 0,0 l/m 0,0 km/h (0 Bft) S 180 0 min 0,000 mm 0 W/m 3,5 C 5,2 C 4,8 km/h (1 Bft) 100 %
04.01.2014 23:30 5,2 C 5,2 C 5,2 C 89 % 999,3 hPa 0,0 l/m 3,2 km/h (1 Bft) S-SO 157 0 min 0,000 mm 0 W/m 3,5 C 5,2 C 8,0 km/h (2 Bft) 100 %
04.01.2014 23:40 5,1 C 5,1 C 5,2 C 89 % 999,5 hPa 0,0 l/m 1,6 km/h (1 Bft) S-SO 157 0 min 0,000 mm 0 W/m 3,4 C 5,1 C 8,0 km/h (2 Bft) 100 %
04.01.2014 23:50 4,9 C 4,9 C 5,1 C 89 % 999,7 hPa 0,0 l/m 1,6 km/h (1 Bft) S-SO 157 0 min 0,000 mm 0 W/m 3,2 C 4,9 C 9,7 km/h (2 Bft) 100 %
_ Min-Zeit 08:50 08:50 09:00 15:00 23:20 - 04:30 - - - - - 09:20 01:50 05:00 08:20
Minimum _ 3,6 C 3,6 C 3,6 C 74 % 999,2 hPa - 0,0 km/h (0 Bft) - - - - - 1,9 C 3,0 C 0,0 km/h (0 Bft) 87 %
_ Max-Zeit 13:50 13:40 13:50 08:30 02:30 18:00 01:40 - - 11:50 13:00 11:50 12:10 13:50 02:30 00:00
Maximum _ 8,8 C 8,7 C 8,8 C 89 % 1014,6 hPa 0,2 l/m 11,3 km/h
S-SW (2 Bft)
- - 10 min 0,051 mm 158 W/m 5,4 C 8,8 C 24,1 km/h
SW (4 Bft)
100 %
Durchschnitt _ 6,2 C 6,1 C 6,3 C 86 % 1006,7 hPa #0,4 l/m 2,6 km/h (1 Bft) S-SO - #10 min. #0,279 mm 57 W/m 3,9 C 6,0 C 8,5 km/h (2 Bft) 98 %
PRIVATE WETTERSTATION BILLIGHEIM-ALLFELD - www.neckar-odenwald-wetter.de - Holger Sonntag